sensor_id;sensor_type;location;lat;lon;timestamp;pressure;altitude;pressure_sealevel;temperature;humidity
15487;BME280;7845;53.698;10.078;2023-05-01T00:01:49;101749.34;;;11.30;100.00
15487;BME280;7845;53.698;10.078;2023-05-01T00:04:15;101737.13;;;11.27;100.00
15487;BME280;7845;53.698;10.078;2023-05-01T00:06:41;101736.13;;;11.02;100.00
15487;BME280;7845;53.698;10.078;2023-05-01T00:09:06;101739.53;;;10.91;100.00
15487;BME280;7845;53.698;10.078;2023-05-01T00:11:33;101736.88;;;10.83;100.00
15487;BME280;7845;53.698;10.078;2023-05-01T00:14:02;101726.47;;;10.86;100.00
15487;BME280;7845;53.698;10.078;2023-05-01T00:16:27;101730.81;;;10.89;100.00
15487;BME280;7845;53.698;10.078;2023-05-01T00:18:53;101730.88;;;10.99;100.00
15487;BME280;7845;53.698;10.078;2023-05-01T00:21:19;101724.75;;;10.94;100.00
15487;BME280;7845;53.698;10.078;2023-05-01T00:23:44;101730.75;;;10.81;100.00
15487;BME280;7845;53.698;10.078;2023-05-01T00:26:10;101725.56;;;10.86;100.00
15487;BME280;7845;53.698;10.078;2023-05-01T00:28:35;101724.63;;;10.76;100.00
15487;BME280;7845;53.698;10.078;2023-05-01T00:31:00;101722.06;;;10.81;100.00
15487;BME280;7845;53.698;10.078;2023-05-01T00:33:26;101715.09;;;10.80;100.00
15487;BME280;7845;53.698;10.078;2023-05-01T00:35:51;101711.59;;;10.79;100.00
15487;BME280;7845;53.698;10.078;2023-05-01T00:38:16;101712.44;;;10.75;100.00
15487;BME280;7845;53.698;10.078;2023-05-01T00:40:45;101713.25;;;10.67;100.00
15487;BME280;7845;53.698;10.078;2023-05-01T00:43:11;101711.59;;;10.79;100.00
15487;BME280;7845;53.698;10.078;2023-05-01T00:45:38;101699.41;;;10.81;100.00
15487;BME280;7845;53.698;10.078;2023-05-01T00:48:04;101695.91;;;10.76;100.00
15487;BME280;7845;53.698;10.078;2023-05-01T00:50:30;101698.53;;;10.76;100.00
15487;BME280;7845;53.698;10.078;2023-05-01T00:52:56;101697.66;;;10.77;100.00
15487;BME280;7845;53.698;10.078;2023-05-01T00:55:22;101695.03;;;10.74;100.00
15487;BME280;7845;53.698;10.078;2023-05-01T00:57:48;101689.78;;;10.68;100.00
15487;BME280;7845;53.698;10.078;2023-05-01T01:00:14;101693.19;;;10.61;100.00
15487;BME280;7845;53.698;10.078;2023-05-01T01:02:40;101690.53;;;10.55;100.00
15487;BME280;7845;53.698;10.078;2023-05-01T01:05:06;101687.97;;;10.57;100.00
15487;BME280;7845;53.698;10.078;2023-05-01T01:07:48;101689.72;;;10.59;100.00
15487;BME280;7845;53.698;10.078;2023-05-01T01:10:26;101685.31;;;10.53;100.00
15487;BME280;7845;53.698;10.078;2023-05-01T01:13:03;101682.66;;;10.44;100.00
15487;BME280;7845;53.698;10.078;2023-05-01T01:18:22;101678.22;;;10.37;100.00
15487;BME280;7845;53.698;10.078;2023-05-01T01:29:03;101673.00;;;10.34;100.00
15487;BME280;7845;53.698;10.078;2023-05-01T01:31:49;101678.09;;;10.18;100.00
15487;BME280;7845;53.698;10.078;2023-05-01T01:34:24;101680.63;;;10.13;100.00
15487;BME280;7845;53.698;10.078;2023-05-01T01:37:07;101677.06;;;10.07;100.00
15487;BME280;7845;53.698;10.078;2023-05-01T01:42:30;101671.78;;;9.99;100.00
15487;BME280;7845;53.698;10.078;2023-05-01T01:45:03;101668.25;;;9.92;100.00
15487;BME280;7845;53.698;10.078;2023-05-01T01:47:35;101669.00;;;9.76;100.00
15487;BME280;7845;53.698;10.078;2023-05-01T01:50:05;101664.63;;;9.75;100.00
15487;BME280;7845;53.698;10.078;2023-05-01T01:52:34;101663.75;;;9.75;100.00
15487;BME280;7845;53.698;10.078;2023-05-01T01:55:04;101668.13;;;9.79;100.00
15487;BME280;7845;53.698;10.078;2023-05-01T01:57:38;101666.41;;;9.81;100.00
15487;BME280;7845;53.698;10.078;2023-05-01T02:00:05;101653.41;;;9.82;100.00
15487;BME280;7845;53.698;10.078;2023-05-01T02:02:36;101661.28;;;9.88;100.00
15487;BME280;7845;53.698;10.078;2023-05-01T02:05:05;101658.53;;;9.75;100.00
15487;BME280;7845;53.698;10.078;2023-05-01T02:07:31;101659.53;;;9.89;100.00
15487;BME280;7845;53.698;10.078;2023-05-01T02:09:58;101654.31;;;9.87;100.00
15487;BME280;7845;53.698;10.078;2023-05-01T02:12:25;101649.88;;;9.80;100.00
15487;BME280;7845;53.698;10.078;2023-05-01T02:14:52;101648.13;;;9.78;100.00
15487;BME280;7845;53.698;10.078;2023-05-01T02:17:20;101648.13;;;9.78;100.00
15487;BME280;7845;53.698;10.078;2023-05-01T02:19:45;101654.13;;;9.71;100.00
15487;BME280;7845;53.698;10.078;2023-05-01T02:22:11;101649.78;;;9.71;100.00
15487;BME280;7845;53.698;10.078;2023-05-01T02:24:37;101642.84;;;9.70;100.00
15487;BME280;7845;53.698;10.078;2023-05-01T02:27:11;101634.16;;;9.71;100.00
15487;BME280;7845;53.698;10.078;2023-05-01T02:29:37;101635.00;;;9.67;100.00
15487;BME280;7845;53.698;10.078;2023-05-01T02:32:03;101626.13;;;9.49;100.00
15487;BME280;7845;53.698;10.078;2023-05-01T02:34:33;101627.16;;;9.66;100.00
15487;BME280;7845;53.698;10.078;2023-05-01T02:36:58;101626.31;;;9.68;100.00
15487;BME280;7845;53.698;10.078;2023-05-01T02:39:23;101624.63;;;9.75;100.00
15487;BME280;7845;53.698;10.078;2023-05-01T02:41:50;101616.81;;;9.75;100.00
15487;BME280;7845;53.698;10.078;2023-05-01T02:44:19;101609.72;;;9.62;100.00
15487;BME280;7845;53.698;10.078;2023-05-01T02:46:46;101611.44;;;9.57;100.00
15487;BME280;7845;53.698;10.078;2023-05-01T02:49:13;101616.69;;;9.63;100.00
15487;BME280;7845;53.698;10.078;2023-05-01T02:51:40;101613.13;;;9.52;100.00
15487;BME280;7845;53.698;10.078;2023-05-01T02:54:06;101607.06;;;9.54;100.00
15487;BME280;7845;53.698;10.078;2023-05-01T02:56:32;101601.69;;;9.39;100.00
15487;BME280;7845;53.698;10.078;2023-05-01T02:58:57;101607.88;;;9.49;100.00
15487;BME280;7845;53.698;10.078;2023-05-01T03:01:23;101598.59;;;9.76;100.00
15487;BME280;7845;53.698;10.078;2023-05-01T03:03:48;101590.78;;;9.78;100.00
15487;BME280;7845;53.698;10.078;2023-05-01T03:06:16;101585.56;;;9.78;100.00
15487;BME280;7845;53.698;10.078;2023-05-01T03:08:45;101583.97;;;9.93;100.00
15487;BME280;7845;53.698;10.078;2023-05-01T03:11:11;101573.53;;;9.95;100.00
15487;BME280;7845;53.698;10.078;2023-05-01T03:13:37;101575.38;;;10.10;100.00
15487;BME280;7845;53.698;10.078;2023-05-01T03:16:02;101583.16;;;10.05;100.00
15487;BME280;7845;53.698;10.078;2023-05-01T03:18:29;101575.53;;;10.31;100.00
15487;BME280;7845;53.698;10.078;2023-05-01T03:20:54;101566.91;;;10.39;100.00
15487;BME280;7845;53.698;10.078;2023-05-01T03:23:24;101563.50;;;10.52;100.00
15487;BME280;7845;53.698;10.078;2023-05-01T03:25:52;101558.31;;;10.62;100.00
15487;BME280;7845;53.698;10.078;2023-05-01T03:28:18;101552.22;;;10.58;100.00
15487;BME280;7845;53.698;10.078;2023-05-01T03:30:45;101557.50;;;10.72;100.00
15487;BME280;7845;53.698;10.078;2023-05-01T03:33:11;101552.31;;;10.78;100.00
15487;BME280;7845;53.698;10.078;2023-05-01T03:35:36;101548.81;;;10.82;100.00
15487;BME280;7845;53.698;10.078;2023-05-01T03:38:03;101541.88;;;10.82;100.00
15487;BME280;7845;53.698;10.078;2023-05-01T03:40:28;101539.28;;;10.85;100.00
15487;BME280;7845;53.698;10.078;2023-05-01T03:42:53;101532.31;;;10.87;100.00
15487;BME280;7845;53.698;10.078;2023-05-01T03:45:19;101538.41;;;10.94;100.00
15487;BME280;7845;53.698;10.078;2023-05-01T03:47:44;101534.09;;;11.00;100.00
15487;BME280;7845;53.698;10.078;2023-05-01T03:50:09;101524.53;;;11.08;100.00
15487;BME280;7845;53.698;10.078;2023-05-01T03:52:35;101517.56;;;11.12;100.00
15487;BME280;7845;53.698;10.078;2023-05-01T03:55:01;101516.69;;;11.04;100.00
15487;BME280;7845;53.698;10.078;2023-05-01T03:57:26;101521.94;;;11.19;100.00
15487;BME280;7845;53.698;10.078;2023-05-01T03:59:52;101516.72;;;11.27;100.00
15487;BME280;7845;53.698;10.078;2023-05-01T04:02:18;101516.72;;;11.21;100.00
15487;BME280;7845;53.698;10.078;2023-05-01T04:04:44;101510.63;;;11.31;100.00
15487;BME280;7845;53.698;10.078;2023-05-01T04:07:10;101505.41;;;11.44;100.00
15487;BME280;7845;53.698;10.078;2023-05-01T04:09:36;101498.44;;;11.60;100.00
15487;BME280;7845;53.698;10.078;2023-05-01T04:12:01;101499.31;;;11.62;100.00
15487;BME280;7845;53.698;10.078;2023-05-01T04:14:27;101491.50;;;11.71;99.53
15487;BME280;7845;53.698;10.078;2023-05-01T04:16:53;101489.75;;;11.85;98.65
15487;BME280;7845;53.698;10.078;2023-05-01T04:19:19;101487.97;;;12.01;98.09
15487;BME280;7845;53.698;10.078;2023-05-01T04:21:45;101477.44;;;12.16;96.34
15487;BME280;7845;53.698;10.078;2023-05-01T04:24:10;101481.81;;;12.18;95.12
15487;BME280;7845;53.698;10.078;2023-05-01T04:26:35;101461.69;;;12.31;94.87
15487;BME280;7845;53.698;10.078;2023-05-01T04:29:01;101465.16;;;12.48;94.15
15487;BME280;7845;53.698;10.078;2023-05-01T04:31:26;101462.41;;;12.68;92.66
15487;BME280;7845;53.698;10.078;2023-05-01T04:33:52;101458.72;;;12.96;91.37
15487;BME280;7845;53.698;10.078;2023-05-01T04:36:17;101448.13;;;13.22;89.68
15487;BME280;7845;53.698;10.078;2023-05-01T04:38:43;101445.31;;;13.43;88.40
15487;BME280;7845;53.698;10.078;2023-05-01T04:41:10;101449.53;;;13.59;87.08
15487;BME280;7845;53.698;10.078;2023-05-01T04:43:35;101443.38;;;13.65;86.25
15487;BME280;7845;53.698;10.078;2023-05-01T04:46:02;101438.19;;;13.59;85.54
15487;BME280;7845;53.698;10.078;2023-05-01T04:48:28;101437.22;;;13.70;85.38
15487;BME280;7845;53.698;10.078;2023-05-01T04:50:58;101435.28;;;13.86;85.80
15487;BME280;7845;53.698;10.078;2023-05-01T04:53:24;101429.84;;;14.01;84.75
15487;BME280;7845;53.698;10.078;2023-05-01T04:55:49;101428.22;;;13.93;82.94
15487;BME280;7845;53.698;10.078;2023-05-01T04:58:14;101430.69;;;14.06;82.80
15487;BME280;7845;53.698;10.078;2023-05-01T05:00:40;101422.41;;;14.39;83.15
15487;BME280;7845;53.698;10.078;2023-05-01T05:03:05;101421.94;;;14.74;81.55
15487;BME280;7845;53.698;10.078;2023-05-01T05:05:31;101414.69;;;14.91;79.64
15487;BME280;7845;53.698;10.078;2023-05-01T05:07:56;101415.84;;;15.27;78.99
15487;BME280;7845;53.698;10.078;2023-05-01T05:10:24;101413.31;;;15.21;77.25
15487;BME280;7845;53.698;10.078;2023-05-01T05:12:50;101414.81;;;15.37;77.26
15487;BME280;7845;53.698;10.078;2023-05-01T05:15:16;101411.69;;;16.12;76.33
15487;BME280;7845;53.698;10.078;2023-05-01T05:17:41;101408.38;;;16.84;73.30
15487;BME280;7845;53.698;10.078;2023-05-01T05:20:08;101399.63;;;17.19;70.91
15487;BME280;7845;53.698;10.078;2023-05-01T05:22:35;101382.38;;;17.39;69.41
15487;BME280;7845;53.698;10.078;2023-05-01T05:25:02;101386.16;;;17.63;69.00
15487;BME280;7845;53.698;10.078;2023-05-01T05:27:28;101381.66;;;17.68;67.09
15487;BME280;7845;53.698;10.078;2023-05-01T05:29:56;101366.84;;;18.22;66.30
15487;BME280;7845;53.698;10.078;2023-05-01T05:32:23;101381.78;;;17.94;65.28
15487;BME280;7845;53.698;10.078;2023-05-01T05:34:48;101381.97;;;17.88;65.02
15487;BME280;7845;53.698;10.078;2023-05-01T05:37:15;101386.72;;;18.06;65.25
15487;BME280;7845;53.698;10.078;2023-05-01T05:39:41;101386.31;;;17.58;65.21
15487;BME280;7845;53.698;10.078;2023-05-01T05:42:06;101397.69;;;17.25;66.09
15487;BME280;7845;53.698;10.078;2023-05-01T05:44:31;101396.59;;;16.98;66.75
15487;BME280;7845;53.698;10.078;2023-05-01T05:47:00;101399.56;;;16.85;68.30
15487;BME280;7845;53.698;10.078;2023-05-01T05:49:25;101401.97;;;16.57;68.68
15487;BME280;7845;53.698;10.078;2023-05-01T05:51:50;101400.13;;;16.61;69.23
15487;BME280;7845;53.698;10.078;2023-05-01T05:54:15;101401.16;;;16.52;68.46
15487;BME280;7845;53.698;10.078;2023-05-01T05:56:41;101403.47;;;16.26;69.41
15487;BME280;7845;53.698;10.078;2023-05-01T05:59:07;101405.78;;;15.99;70.16
15487;BME280;7845;53.698;10.078;2023-05-01T06:01:33;101398.03;;;15.92;71.45
15487;BME280;7845;53.698;10.078;2023-05-01T06:03:59;101409.31;;;15.53;74.38
15487;BME280;7845;53.698;10.078;2023-05-01T06:06:25;101401.50;;;15.48;72.49
15487;BME280;7845;53.698;10.078;2023-05-01T06:08:51;101392.84;;;15.38;73.83
15487;BME280;7845;53.698;10.078;2023-05-01T06:11:16;101397.06;;;15.52;74.22
15487;BME280;7845;53.698;10.078;2023-05-01T06:13:42;101392.91;;;15.37;74.19
15487;BME280;7845;53.698;10.078;2023-05-01T06:16:09;101389.44;;;15.33;74.42
15487;BME280;7845;53.698;10.078;2023-05-01T06:18:34;101388.41;;;15.42;74.84
15487;BME280;7845;53.698;10.078;2023-05-01T06:21:04;101384.13;;;15.36;74.57
15487;BME280;7845;53.698;10.078;2023-05-01T06:23:31;101388.66;;;15.28;75.16
15487;BME280;7845;53.698;10.078;2023-05-01T06:25:58;101387.75;;;15.31;74.25
15487;BME280;7845;53.698;10.078;2023-05-01T06:28:24;101391.16;;;15.36;74.46
15487;BME280;7845;53.698;10.078;2023-05-01T06:30:49;101388.81;;;15.18;76.63
15487;BME280;7845;53.698;10.078;2023-05-01T06:33:15;101389.59;;;15.24;76.10
15487;BME280;7845;53.698;10.078;2023-05-01T06:35:40;101388.56;;;15.34;75.07
15487;BME280;7845;53.698;10.078;2023-05-01T06:38:06;101381.50;;;15.38;74.36
15487;BME280;7845;53.698;10.078;2023-05-01T06:40:31;101377.22;;;15.31;74.31
15487;BME280;7845;53.698;10.078;2023-05-01T06:43:00;101382.13;;;15.52;74.30
15487;BME280;7845;53.698;10.078;2023-05-01T06:45:26;101370.63;;;15.56;73.76
15487;BME280;7845;53.698;10.078;2023-05-01T06:47:51;101368.00;;;15.56;73.32
15487;BME280;7845;53.698;10.078;2023-05-01T06:50:18;101373.31;;;15.53;75.20
15487;BME280;7845;53.698;10.078;2023-05-01T06:52:43;101367.72;;;15.71;74.36
15487;BME280;7845;53.698;10.078;2023-05-01T06:55:08;101362.56;;;15.65;74.19
15487;BME280;7845;53.698;10.078;2023-05-01T06:57:34;101362.81;;;15.97;72.60
15487;BME280;7845;53.698;10.078;2023-05-01T06:59:59;101351.38;;;15.98;72.49
15487;BME280;7845;53.698;10.078;2023-05-01T07:02:25;101348.63;;;16.04;72.51
15487;BME280;7845;53.698;10.078;2023-05-01T07:04:52;101347.78;;;16.02;72.12
15487;BME280;7845;53.698;10.078;2023-05-01T07:07:18;101342.09;;;16.22;71.62
15487;BME280;7845;53.698;10.078;2023-05-01T07:09:43;101343.94;;;16.19;71.88
15487;BME280;7845;53.698;10.078;2023-05-01T07:12:09;101343.28;;;16.08;71.53
15487;BME280;7845;53.698;10.078;2023-05-01T07:14:34;101324.66;;;16.17;71.05
15487;BME280;7845;53.698;10.078;2023-05-01T07:17:01;101326.19;;;16.27;69.67
15487;BME280;7845;53.698;10.078;2023-05-01T07:19:27;101324.69;;;16.55;69.73
15487;BME280;7845;53.698;10.078;2023-05-01T07:21:53;101316.19;;;16.41;68.09
15487;BME280;7845;53.698;10.078;2023-05-01T07:24:19;101320.94;;;16.25;70.83
15487;BME280;7845;53.698;10.078;2023-05-01T07:26:47;101318.56;;;16.53;69.40
15487;BME280;7845;53.698;10.078;2023-05-01T07:29:14;101304.81;;;16.77;68.96
15487;BME280;7845;53.698;10.078;2023-05-01T07:31:41;101303.44;;;16.63;68.86
15487;BME280;7845;53.698;10.078;2023-05-01T07:34:06;101294.06;;;16.85;68.83
15487;BME280;7845;53.698;10.078;2023-05-01T07:36:32;101290.53;;;16.86;66.72
15487;BME280;7845;53.698;10.078;2023-05-01T07:38:58;101278.00;;;16.94;65.94
15487;BME280;7845;53.698;10.078;2023-05-01T07:41:23;101279.44;;;17.07;66.09
15487;BME280;7845;53.698;10.078;2023-05-01T07:43:50;101274.00;;;17.13;64.36
15487;BME280;7845;53.698;10.078;2023-05-01T07:46:16;101273.44;;;16.67;66.48
15487;BME280;7845;53.698;10.078;2023-05-01T07:48:41;101281.13;;;16.76;66.70
15487;BME280;7845;53.698;10.078;2023-05-01T07:51:08;101282.72;;;16.83;67.48
15487;BME280;7845;53.698;10.078;2023-05-01T07:53:34;101273.97;;;16.81;67.12
15487;BME280;7845;53.698;10.078;2023-05-01T07:56:07;101271.91;;;16.58;66.89
15487;BME280;7845;53.698;10.078;2023-05-01T07:58:33;101270.16;;;16.92;67.32
15487;BME280;7845;53.698;10.078;2023-05-01T08:01:00;101274.63;;;16.89;67.38
15487;BME280;7845;53.698;10.078;2023-05-01T08:03:27;101263.13;;;16.93;66.37
15487;BME280;7845;53.698;10.078;2023-05-01T08:05:53;101257.22;;;17.15;65.72
15487;BME280;7845;53.698;10.078;2023-05-01T08:08:19;101263.56;;;17.08;64.13
15487;BME280;7845;53.698;10.078;2023-05-01T08:10:46;101246.88;;;17.08;63.53
15487;BME280;7845;53.698;10.078;2023-05-01T08:13:11;101256.88;;;17.28;64.89
15487;BME280;7845;53.698;10.078;2023-05-01T08:15:37;101251.16;;;17.12;63.60
15487;BME280;7845;53.698;10.078;2023-05-01T08:18:04;101249.69;;;17.33;62.88
15487;BME280;7845;53.698;10.078;2023-05-01T08:20:35;101243.94;;;17.20;61.96
15487;BME280;7845;53.698;10.078;2023-05-01T08:23:00;101247.22;;;17.28;61.63
15487;BME280;7845;53.698;10.078;2023-05-01T08:25:26;101238.31;;;17.32;61.13
15487;BME280;7845;53.698;10.078;2023-05-01T08:27:51;101240.09;;;17.30;60.55
15487;BME280;7845;53.698;10.078;2023-05-01T08:30:18;101238.94;;;17.40;60.12
15487;BME280;7845;53.698;10.078;2023-05-01T08:32:44;101243.34;;;17.40;61.61
15487;BME280;7845;53.698;10.078;2023-05-01T08:35:10;101238.09;;;17.38;59.98
15487;BME280;7845;53.698;10.078;2023-05-01T08:37:37;101234.72;;;17.65;59.61
15487;BME280;7845;53.698;10.078;2023-05-01T08:40:03;101232.47;;;17.83;59.35
15487;BME280;7845;53.698;10.078;2023-05-01T08:42:34;101233.22;;;17.57;59.90
15487;BME280;7845;53.698;10.078;2023-05-01T08:45:00;101222.44;;;17.92;58.16
15487;BME280;7845;53.698;10.078;2023-05-01T08:47:26;101219.69;;;17.97;57.52
15487;BME280;7845;53.698;10.078;2023-05-01T08:49:54;101223.53;;;18.14;58.25
15487;BME280;7845;53.698;10.078;2023-05-01T08:52:20;101215.13;;;18.02;58.27
15487;BME280;7845;53.698;10.078;2023-05-01T08:54:47;101202.28;;;18.17;56.93
15487;BME280;7845;53.698;10.078;2023-05-01T08:57:15;101209.44;;;18.42;57.02
15487;BME280;7845;53.698;10.078;2023-05-01T08:59:43;101203.03;;;18.49;57.38
15487;BME280;7845;53.698;10.078;2023-05-01T09:02:09;101208.63;;;18.40;58.92
15487;BME280;7845;53.698;10.078;2023-05-01T09:04:40;101204.78;;;18.50;58.59
15487;BME280;7845;53.698;10.078;2023-05-01T09:07:06;101203.25;;;18.41;57.07
15487;BME280;7845;53.698;10.078;2023-05-01T09:09:32;101199.19;;;18.31;58.54
15487;BME280;7845;53.698;10.078;2023-05-01T09:12:00;101194.09;;;18.25;57.85
15487;BME280;7845;53.698;10.078;2023-05-01T09:14:30;101199.75;;;18.14;58.06
15487;BME280;7845;53.698;10.078;2023-05-01T09:16:57;101192.50;;;18.21;58.24
15487;BME280;7845;53.698;10.078;2023-05-01T09:19:24;101193.38;;;18.21;58.98
15487;BME280;7845;53.698;10.078;2023-05-01T09:21:52;101188.00;;;18.23;58.99
15487;BME280;7845;53.698;10.078;2023-05-01T09:24:17;101181.44;;;18.35;59.27
15487;BME280;7845;53.698;10.078;2023-05-01T09:26:44;101190.31;;;18.34;59.82
15487;BME280;7845;53.698;10.078;2023-05-01T09:29:10;101189.03;;;18.45;59.26
15487;BME280;7845;53.698;10.078;2023-05-01T09:31:35;101186.50;;;18.42;59.38
15487;BME280;7845;53.698;10.078;2023-05-01T09:34:02;101180.41;;;18.66;60.10
15487;BME280;7845;53.698;10.078;2023-05-01T09:36:30;101174.19;;;18.67;57.98
15487;BME280;7845;53.698;10.078;2023-05-01T09:38:59;101162.75;;;18.67;55.27
15487;BME280;7845;53.698;10.078;2023-05-01T09:41:26;101159.84;;;18.74;55.35
15487;BME280;7845;53.698;10.078;2023-05-01T09:43:53;101169.72;;;18.94;56.39
15487;BME280;7845;53.698;10.078;2023-05-01T09:46:20;101164.97;;;18.79;56.00
15487;BME280;7845;53.698;10.078;2023-05-01T09:49:00;101168.38;;;19.07;55.80
15487;BME280;7845;53.698;10.078;2023-05-01T09:51:29;101152.59;;;19.04;53.96
15487;BME280;7845;53.698;10.078;2023-05-01T09:53:56;101155.88;;;19.11;55.11
15487;BME280;7845;53.698;10.078;2023-05-01T09:56:22;101154.47;;;19.01;55.54
15487;BME280;7845;53.698;10.078;2023-05-01T09:58:53;101157.56;;;19.13;55.16
15487;BME280;7845;53.698;10.078;2023-05-01T10:01:45;101143.53;;;19.11;54.40
15487;BME280;7845;53.698;10.078;2023-05-01T10:04:12;101144.88;;;19.21;54.17
15487;BME280;7845;53.698;10.078;2023-05-01T10:06:39;101137.06;;;19.18;54.18
15487;BME280;7845;53.698;10.078;2023-05-01T10:09:07;101148.09;;;19.29;55.32
15487;BME280;7845;53.698;10.078;2023-05-01T10:11:52;101140.94;;;19.56;54.65
15487;BME280;7845;53.698;10.078;2023-05-01T10:14:18;101134.97;;;19.73;53.73
15487;BME280;7845;53.698;10.078;2023-05-01T10:16:44;101132.59;;;19.88;52.83
15487;BME280;7845;53.698;10.078;2023-05-01T10:19:11;101124.16;;;20.01;51.32
15487;BME280;7845;53.698;10.078;2023-05-01T10:21:37;101121.56;;;20.19;52.21
15487;BME280;7845;53.698;10.078;2023-05-01T10:24:04;101095.56;;;20.29;48.04
15487;BME280;7845;53.698;10.078;2023-05-01T10:26:32;101101.09;;;20.65;49.53
15487;BME280;7845;53.698;10.078;2023-05-01T10:28:59;101096.69;;;20.84;48.05
15487;BME280;7845;53.698;10.078;2023-05-01T10:31:26;101102.19;;;20.79;49.01
15487;BME280;7845;53.698;10.078;2023-05-01T10:33:53;101097.50;;;21.05;48.29
15487;BME280;7845;53.698;10.078;2023-05-01T10:36:24;101092.88;;;21.10;47.65
15487;BME280;7845;53.698;10.078;2023-05-01T10:38:51;101086.69;;;21.09;46.96
15487;BME280;7845;53.698;10.078;2023-05-01T10:44:24;101072.50;;;21.29;45.66
15487;BME280;7845;53.698;10.078;2023-05-01T10:46:50;101065.41;;;21.29;44.66
15487;BME280;7845;53.698;10.078;2023-05-01T10:49:16;101061.16;;;21.44;44.93
15487;BME280;7845;53.698;10.078;2023-05-01T10:54:31;101057.97;;;21.55;44.07
15487;BME280;7845;53.698;10.078;2023-05-01T10:57:02;101057.50;;;21.46;44.74
15487;BME280;7845;53.698;10.078;2023-05-01T11:02:26;101037.50;;;21.57;42.63
15487;BME280;7845;53.698;10.078;2023-05-01T11:04:53;101034.66;;;21.42;41.87
15487;BME280;7845;53.698;10.078;2023-05-01T11:07:20;101036.25;;;21.46;42.18
15487;BME280;7845;53.698;10.078;2023-05-01T11:09:53;101040.50;;;21.68;43.32
15487;BME280;7845;53.698;10.078;2023-05-01T11:15:32;101032.03;;;21.95;43.09
15487;BME280;7845;53.698;10.078;2023-05-01T11:18:00;101026.28;;;22.22;43.26
15487;BME280;7845;53.698;10.078;2023-05-01T11:23:01;101014.59;;;22.24;42.68
15487;BME280;7845;53.698;10.078;2023-05-01T11:25:30;101019.00;;;22.75;43.64
15487;BME280;7845;53.698;10.078;2023-05-01T11:27:57;101011.94;;;22.74;43.24
15487;BME280;7845;53.698;10.078;2023-05-01T11:30:23;101017.06;;;23.26;43.21
15487;BME280;7845;53.698;10.078;2023-05-01T11:32:49;101006.47;;;23.24;41.75
15487;BME280;7845;53.698;10.078;2023-05-01T11:35:20;100991.53;;;23.22;40.97
15487;BME280;7845;53.698;10.078;2023-05-01T11:37:46;100994.63;;;23.30;40.55
15487;BME280;7845;53.698;10.078;2023-05-01T11:42:49;100992.75;;;23.16;41.79
15487;BME280;7845;53.698;10.078;2023-05-01T11:45:17;100988.78;;;22.92;40.53
15487;BME280;7845;53.698;10.078;2023-05-01T11:47:43;100980.00;;;23.21;40.32
15487;BME280;7845;53.698;10.078;2023-05-01T11:50:10;100987.69;;;23.43;42.23
15487;BME280;7845;53.698;10.078;2023-05-01T11:52:46;100979.06;;;23.06;40.71
15487;BME280;7845;53.698;10.078;2023-05-01T11:55:13;100965.31;;;23.45;39.39
15487;BME280;7845;53.698;10.078;2023-05-01T11:57:48;100968.63;;;23.94;41.14
15487;BME280;7845;53.698;10.078;2023-05-01T12:00:16;100975.78;;;23.64;41.15
15487;BME280;7845;53.698;10.078;2023-05-01T12:03:02;100964.59;;;23.73;40.21
15487;BME280;7845;53.698;10.078;2023-05-01T12:05:30;100972.38;;;23.62;40.68
15487;BME280;7845;53.698;10.078;2023-05-01T12:08:05;100981.44;;;24.03;42.26
15487;BME280;7845;53.698;10.078;2023-05-01T12:10:32;100969.56;;;24.23;41.82
15487;BME280;7845;53.698;10.078;2023-05-01T12:12:59;100960.13;;;23.88;40.15
15487;BME280;7845;53.698;10.078;2023-05-01T12:15:24;100954.78;;;23.74;40.38
15487;BME280;7845;53.698;10.078;2023-05-01T12:17:50;100955.19;;;24.26;40.84
15487;BME280;7845;53.698;10.078;2023-05-01T12:20:16;100949.69;;;23.99;39.80
15487;BME280;7845;53.698;10.078;2023-05-01T12:22:58;100943.09;;;24.04;38.77
15487;BME280;7845;53.698;10.078;2023-05-01T12:25:29;100945.78;;;24.04;38.70
15487;BME280;7845;53.698;10.078;2023-05-01T12:27:56;100940.81;;;24.28;40.33
15487;BME280;7845;53.698;10.078;2023-05-01T12:30:25;100946.22;;;24.41;39.85
15487;BME280;7845;53.698;10.078;2023-05-01T12:32:54;100932.22;;;23.79;38.97
15487;BME280;7845;53.698;10.078;2023-05-01T12:35:20;100937.06;;;23.73;40.18
15487;BME280;7845;53.698;10.078;2023-05-01T12:37:45;100956.16;;;23.95;41.46
15487;BME280;7845;53.698;10.078;2023-05-01T12:40:14;100943.75;;;24.23;40.43
15487;BME280;7845;53.698;10.078;2023-05-01T12:42:40;100939.72;;;24.16;39.25
15487;BME280;7845;53.698;10.078;2023-05-01T12:45:06;100920.78;;;24.21;38.88
15487;BME280;7845;53.698;10.078;2023-05-01T12:47:36;100940.88;;;24.27;40.32
15487;BME280;7845;53.698;10.078;2023-05-01T12:50:03;100930.59;;;24.35;38.76
15487;BME280;7845;53.698;10.078;2023-05-01T12:52:28;100929.28;;;24.42;38.62
15487;BME280;7845;53.698;10.078;2023-05-01T12:55:01;100925.75;;;24.27;38.88
15487;BME280;7845;53.698;10.078;2023-05-01T12:57:27;100927.53;;;24.41;39.28
15487;BME280;7845;53.698;10.078;2023-05-01T12:59:58;100916.00;;;24.12;37.20
15487;BME280;7845;53.698;10.078;2023-05-01T13:02:31;100919.06;;;24.20;37.59
15487;BME280;7845;53.698;10.078;2023-05-01T13:05:09;100916.38;;;24.20;37.77
15487;BME280;7845;53.698;10.078;2023-05-01T13:07:35;100923.19;;;24.40;38.42
15487;BME280;7845;53.698;10.078;2023-05-01T13:10:02;100922.22;;;24.55;39.25
15487;BME280;7845;53.698;10.078;2023-05-01T13:12:31;100919.16;;;24.61;39.21
15487;BME280;7845;53.698;10.078;2023-05-01T13:14:58;100909.78;;;24.82;39.29
15487;BME280;7845;53.698;10.078;2023-05-01T13:17:25;100900.72;;;24.70;37.82
15487;BME280;7845;53.698;10.078;2023-05-01T13:19:59;100892.72;;;23.86;36.56